Greenfield, New York
Current Conditions -  °F | °C
As of 7:53 PM on Monday 26 Jan 2015 (Local Time) from KGFL Reporting Station
Overcast Overcast  
Wind Chill:   Ceiling: 6000
Heat Index: 16°   Visibility: 10mi
Dew Point:   Wind: 9mph
Humidity: 59%   Direction: 360°N
Pressure: 30.06"   Gusts: NA
Location:  43.1447°N, 73.8492°W
Report Text: KGFL 270053Z AUTO 36008KT 10SM BKN060 OVC080 M09/M16 A3006 RMK AO2 SLP192 T10891156
Loading
Personal Weather Stations






























Interactive Weather Map New forecast layout! Learn more

10-Day Weather Forecast

Advertisements
Track Severe Weather on mobile